sensor_id;sensor_type;location;lat;lon;timestamp;P1;durP1;ratioP1;P2;durP2;ratioP2
43996;SDS011;34318;45.818;15.964;2022-07-22T00:01:54;5.00;;;3.05;;
43996;SDS011;34318;45.818;15.964;2022-07-22T00:04:21;4.20;;;3.10;;
43996;SDS011;34318;45.818;15.964;2022-07-22T00:06:48;3.75;;;3.17;;
43996;SDS011;34318;45.818;15.964;2022-07-22T00:09:15;3.15;;;2.92;;
43996;SDS011;34318;45.818;15.964;2022-07-22T00:11:42;3.78;;;3.30;;
43996;SDS011;34318;45.818;15.964;2022-07-22T00:14:08;4.03;;;3.03;;
43996;SDS011;34318;45.818;15.964;2022-07-22T00:16:35;3.90;;;3.30;;
43996;SDS011;34318;45.818;15.964;2022-07-22T00:19:02;3.17;;;2.88;;
43996;SDS011;34318;45.818;15.964;2022-07-22T00:21:32;4.00;;;3.03;;
43996;SDS011;34318;45.818;15.964;2022-07-22T00:23:59;3.38;;;3.08;;
43996;SDS011;34318;45.818;15.964;2022-07-22T00:26:26;4.38;;;3.22;;
43996;SDS011;34318;45.818;15.964;2022-07-22T00:28:53;4.75;;;3.42;;
43996;SDS011;34318;45.818;15.964;2022-07-22T00:31:20;3.65;;;3.35;;
43996;SDS011;34318;45.818;15.964;2022-07-22T00:33:47;4.28;;;2.90;;
43996;SDS011;34318;45.818;15.964;2022-07-22T00:36:14;3.22;;;2.95;;
43996;SDS011;34318;45.818;15.964;2022-07-22T00:38:41;3.78;;;2.83;;
43996;SDS011;34318;45.818;15.964;2022-07-22T00:41:08;3.88;;;3.15;;
43996;SDS011;34318;45.818;15.964;2022-07-22T00:46:28;3.60;;;2.97;;
43996;SDS011;34318;45.818;15.964;2022-07-22T00:48:55;4.78;;;2.95;;
43996;SDS011;34318;45.818;15.964;2022-07-22T00:51:24;3.30;;;2.90;;
43996;SDS011;34318;45.818;15.964;2022-07-22T00:53:53;5.18;;;3.28;;
43996;SDS011;34318;45.818;15.964;2022-07-22T00:56:21;3.42;;;3.13;;
43996;SDS011;34318;45.818;15.964;2022-07-22T00:58:48;4.75;;;2.80;;
43996;SDS011;34318;45.818;15.964;2022-07-22T01:01:18;3.25;;;2.90;;
43996;SDS011;34318;45.818;15.964;2022-07-22T01:03:45;2.97;;;2.78;;
43996;SDS011;34318;45.818;15.964;2022-07-22T01:06:16;6.10;;;3.20;;
43996;SDS011;34318;45.818;15.964;2022-07-22T01:08:43;3.50;;;3.17;;
43996;SDS011;34318;45.818;15.964;2022-07-22T01:11:11;3.47;;;3.10;;
43996;SDS011;34318;45.818;15.964;2022-07-22T01:13:44;3.35;;;3.00;;
43996;SDS011;34318;45.818;15.964;2022-07-22T01:16:12;3.17;;;2.88;;
43996;SDS011;34318;45.818;15.964;2022-07-22T01:18:41;4.28;;;2.88;;
43996;SDS011;34318;45.818;15.964;2022-07-22T01:21:08;3.58;;;2.88;;
43996;SDS011;34318;45.818;15.964;2022-07-22T01:23:36;4.47;;;3.50;;
43996;SDS011;34318;45.818;15.964;2022-07-22T01:26:03;3.35;;;2.95;;
43996;SDS011;34318;45.818;15.964;2022-07-22T01:28:31;3.65;;;3.30;;
43996;SDS011;34318;45.818;15.964;2022-07-22T01:30:58;4.38;;;2.85;;
43996;SDS011;34318;45.818;15.964;2022-07-22T01:33:25;4.53;;;3.20;;
43996;SDS011;34318;45.818;15.964;2022-07-22T01:35:53;4.25;;;3.28;;
43996;SDS011;34318;45.818;15.964;2022-07-22T01:38:20;3.30;;;2.95;;
43996;SDS011;34318;45.818;15.964;2022-07-22T01:40:47;4.40;;;2.90;;
43996;SDS011;34318;45.818;15.964;2022-07-22T01:43:14;2.95;;;2.75;;
43996;SDS011;34318;45.818;15.964;2022-07-22T01:45:44;3.20;;;2.92;;
43996;SDS011;34318;45.818;15.964;2022-07-22T01:48:12;3.97;;;3.00;;
43996;SDS011;34318;45.818;15.964;2022-07-22T01:50:41;5.40;;;3.45;;
43996;SDS011;34318;45.818;15.964;2022-07-22T01:53:08;5.65;;;3.30;;
43996;SDS011;34318;45.818;15.964;2022-07-22T01:55:36;3.25;;;2.95;;
43996;SDS011;34318;45.818;15.964;2022-07-22T01:58:03;4.88;;;3.17;;
43996;SDS011;34318;45.818;15.964;2022-07-22T02:00:31;3.13;;;2.83;;
43996;SDS011;34318;45.818;15.964;2022-07-22T02:02:59;4.00;;;3.55;;
43996;SDS011;34318;45.818;15.964;2022-07-22T02:05:26;2.85;;;2.65;;
43996;SDS011;34318;45.818;15.964;2022-07-22T02:07:58;3.03;;;2.83;;
43996;SDS011;34318;45.818;15.964;2022-07-22T02:10:36;3.50;;;2.80;;
43996;SDS011;34318;45.818;15.964;2022-07-22T02:13:04;3.75;;;3.40;;
43996;SDS011;34318;45.818;15.964;2022-07-22T02:15:32;3.47;;;2.97;;
43996;SDS011;34318;45.818;15.964;2022-07-22T02:18:00;4.30;;;3.22;;
43996;SDS011;34318;45.818;15.964;2022-07-22T02:20:35;2.97;;;2.78;;
43996;SDS011;34318;45.818;15.964;2022-07-22T02:23:03;3.70;;;3.05;;
43996;SDS011;34318;45.818;15.964;2022-07-22T02:25:30;3.30;;;3.10;;
43996;SDS011;34318;45.818;15.964;2022-07-22T02:27:57;3.05;;;2.85;;
43996;SDS011;34318;45.818;15.964;2022-07-22T02:30:24;3.15;;;2.90;;
43996;SDS011;34318;45.818;15.964;2022-07-22T02:32:51;3.40;;;3.10;;
43996;SDS011;34318;45.818;15.964;2022-07-22T02:35:18;3.75;;;3.20;;
43996;SDS011;34318;45.818;15.964;2022-07-22T02:37:45;3.38;;;3.15;;
43996;SDS011;34318;45.818;15.964;2022-07-22T02:40:12;4.53;;;3.00;;
43996;SDS011;34318;45.818;15.964;2022-07-22T02:42:39;4.10;;;3.33;;
43996;SDS011;34318;45.818;15.964;2022-07-22T02:45:07;3.80;;;3.45;;
43996;SDS011;34318;45.818;15.964;2022-07-22T02:47:34;3.15;;;2.88;;
43996;SDS011;34318;45.818;15.964;2022-07-22T02:50:01;5.30;;;2.92;;
43996;SDS011;34318;45.818;15.964;2022-07-22T02:52:31;4.10;;;3.30;;
43996;SDS011;34318;45.818;15.964;2022-07-22T02:54:58;3.85;;;2.88;;
43996;SDS011;34318;45.818;15.964;2022-07-22T02:57:25;4.20;;;3.08;;
43996;SDS011;34318;45.818;15.964;2022-07-22T02:59:51;4.32;;;3.20;;
43996;SDS011;34318;45.818;15.964;2022-07-22T03:02:18;3.83;;;3.42;;
43996;SDS011;34318;45.818;15.964;2022-07-22T03:04:45;3.13;;;2.90;;
43996;SDS011;34318;45.818;15.964;2022-07-22T03:07:12;4.88;;;3.03;;
43996;SDS011;34318;45.818;15.964;2022-07-22T03:09:39;3.78;;;3.20;;
43996;SDS011;34318;45.818;15.964;2022-07-22T03:12:06;4.03;;;3.30;;
43996;SDS011;34318;45.818;15.964;2022-07-22T03:14:34;5.95;;;2.80;;
43996;SDS011;34318;45.818;15.964;2022-07-22T03:17:01;3.47;;;3.05;;
43996;SDS011;34318;45.818;15.964;2022-07-22T03:19:28;3.28;;;2.97;;
43996;SDS011;34318;45.818;15.964;2022-07-22T03:21:55;3.15;;;2.85;;
43996;SDS011;34318;45.818;15.964;2022-07-22T03:24:23;5.43;;;3.35;;
43996;SDS011;34318;45.818;15.964;2022-07-22T03:26:50;3.30;;;2.97;;
43996;SDS011;34318;45.818;15.964;2022-07-22T03:29:16;3.40;;;3.08;;
43996;SDS011;34318;45.818;15.964;2022-07-22T03:31:43;4.88;;;3.22;;
43996;SDS011;34318;45.818;15.964;2022-07-22T03:34:10;3.08;;;2.78;;
43996;SDS011;34318;45.818;15.964;2022-07-22T03:36:37;3.47;;;3.17;;
43996;SDS011;34318;45.818;15.964;2022-07-22T03:39:04;5.13;;;3.25;;
43996;SDS011;34318;45.818;15.964;2022-07-22T03:41:31;4.70;;;3.33;;
43996;SDS011;34318;45.818;15.964;2022-07-22T03:43:58;5.55;;;3.67;;
43996;SDS011;34318;45.818;15.964;2022-07-22T03:46:25;3.63;;;3.33;;
43996;SDS011;34318;45.818;15.964;2022-07-22T03:48:52;3.50;;;3.15;;
43996;SDS011;34318;45.818;15.964;2022-07-22T03:51:19;3.88;;;3.38;;
43996;SDS011;34318;45.818;15.964;2022-07-22T03:53:46;3.75;;;3.45;;
43996;SDS011;34318;45.818;15.964;2022-07-22T03:56:13;3.55;;;3.25;;
43996;SDS011;34318;45.818;15.964;2022-07-22T03:58:40;3.28;;;2.97;;
43996;SDS011;34318;45.818;15.964;2022-07-22T04:01:07;4.00;;;3.60;;
43996;SDS011;34318;45.818;15.964;2022-07-22T04:03:34;3.60;;;3.30;;
43996;SDS011;34318;45.818;15.964;2022-07-22T04:06:01;3.10;;;2.90;;
43996;SDS011;34318;45.818;15.964;2022-07-22T04:08:28;4.47;;;3.28;;
43996;SDS011;34318;45.818;15.964;2022-07-22T04:10:55;4.15;;;3.53;;
43996;SDS011;34318;45.818;15.964;2022-07-22T04:13:21;3.40;;;3.10;;
43996;SDS011;34318;45.818;15.964;2022-07-22T04:15:48;3.40;;;3.10;;
43996;SDS011;34318;45.818;15.964;2022-07-22T04:18:15;3.95;;;3.45;;
43996;SDS011;34318;45.818;15.964;2022-07-22T04:20:43;4.88;;;3.55;;
43996;SDS011;34318;45.818;15.964;2022-07-22T04:23:10;3.55;;;3.25;;
43996;SDS011;34318;45.818;15.964;2022-07-22T04:25:37;5.35;;;3.65;;
43996;SDS011;34318;45.818;15.964;2022-07-22T04:28:04;3.83;;;3.53;;
43996;SDS011;34318;45.818;15.964;2022-07-22T04:30:31;4.30;;;3.90;;
43996;SDS011;34318;45.818;15.964;2022-07-22T04:32:58;3.58;;;3.28;;
43996;SDS011;34318;45.818;15.964;2022-07-22T04:35:25;3.70;;;3.40;;
43996;SDS011;34318;45.818;15.964;2022-07-22T04:37:51;5.18;;;3.90;;
43996;SDS011;34318;45.818;15.964;2022-07-22T04:40:19;3.95;;;3.55;;
43996;SDS011;34318;45.818;15.964;2022-07-22T04:42:49;4.15;;;3.80;;
43996;SDS011;34318;45.818;15.964;2022-07-22T04:45:16;4.00;;;3.70;;
43996;SDS011;34318;45.818;15.964;2022-07-22T04:47:43;3.75;;;3.35;;
43996;SDS011;34318;45.818;15.964;2022-07-22T04:50:10;4.22;;;3.70;;
43996;SDS011;34318;45.818;15.964;2022-07-22T04:52:37;3.75;;;2.88;;
43996;SDS011;34318;45.818;15.964;2022-07-22T04:55:04;5.88;;;3.55;;
43996;SDS011;34318;45.818;15.964;2022-07-22T04:57:31;5.65;;;3.60;;
43996;SDS011;34318;45.818;15.964;2022-07-22T04:59:58;4.28;;;3.88;;
43996;SDS011;34318;45.818;15.964;2022-07-22T05:02:25;5.45;;;4.55;;
43996;SDS011;34318;45.818;15.964;2022-07-22T05:04:52;4.22;;;3.60;;
43996;SDS011;34318;45.818;15.964;2022-07-22T05:07:25;3.75;;;3.45;;
43996;SDS011;34318;45.818;15.964;2022-07-22T05:09:52;6.07;;;4.15;;
43996;SDS011;34318;45.818;15.964;2022-07-22T05:12:19;5.22;;;3.85;;
43996;SDS011;34318;45.818;15.964;2022-07-22T05:14:46;5.68;;;3.97;;
43996;SDS011;34318;45.818;15.964;2022-07-22T05:17:13;4.68;;;4.07;;
43996;SDS011;34318;45.818;15.964;2022-07-22T05:19:41;4.25;;;3.85;;
43996;SDS011;34318;45.818;15.964;2022-07-22T05:22:08;4.07;;;3.65;;
43996;SDS011;34318;45.818;15.964;2022-07-22T05:24:35;4.38;;;3.80;;
43996;SDS011;34318;45.818;15.964;2022-07-22T05:27:02;4.65;;;3.38;;
43996;SDS011;34318;45.818;15.964;2022-07-22T05:29:29;5.45;;;3.65;;
43996;SDS011;34318;45.818;15.964;2022-07-22T05:31:56;4.05;;;3.65;;
43996;SDS011;34318;45.818;15.964;2022-07-22T05:34:23;4.15;;;3.72;;
43996;SDS011;34318;45.818;15.964;2022-07-22T05:36:50;4.10;;;3.65;;
43996;SDS011;34318;45.818;15.964;2022-07-22T05:39:17;4.88;;;3.10;;
43996;SDS011;34318;45.818;15.964;2022-07-22T05:41:44;5.95;;;3.80;;
43996;SDS011;34318;45.818;15.964;2022-07-22T05:44:11;4.28;;;3.67;;
43996;SDS011;34318;45.818;15.964;2022-07-22T05:46:38;3.97;;;3.42;;
43996;SDS011;34318;45.818;15.964;2022-07-22T05:49:05;5.00;;;3.88;;
43996;SDS011;34318;45.818;15.964;2022-07-22T05:51:35;7.13;;;4.40;;
43996;SDS011;34318;45.818;15.964;2022-07-22T05:54:01;7.22;;;4.03;;
43996;SDS011;34318;45.818;15.964;2022-07-22T05:56:28;5.47;;;4.28;;
43996;SDS011;34318;45.818;15.964;2022-07-22T05:58:55;4.20;;;3.80;;
43996;SDS011;34318;45.818;15.964;2022-07-22T06:01:23;6.53;;;3.80;;
43996;SDS011;34318;45.818;15.964;2022-07-22T06:03:50;7.82;;;4.43;;
43996;SDS011;34318;45.818;15.964;2022-07-22T06:06:17;11.88;;;4.68;;
43996;SDS011;34318;45.818;15.964;2022-07-22T06:08:43;8.05;;;4.35;;
43996;SDS011;34318;45.818;15.964;2022-07-22T06:11:18;4.97;;;4.32;;
43996;SDS011;34318;45.818;15.964;2022-07-22T06:13:45;8.57;;;4.40;;
43996;SDS011;34318;45.818;15.964;2022-07-22T06:16:12;11.15;;;6.13;;
43996;SDS011;34318;45.818;15.964;2022-07-22T06:18:39;9.35;;;6.40;;
43996;SDS011;34318;45.818;15.964;2022-07-22T06:21:05;8.65;;;5.82;;
43996;SDS011;34318;45.818;15.964;2022-07-22T06:23:34;13.18;;;5.35;;
43996;SDS011;34318;45.818;15.964;2022-07-22T06:26:01;6.38;;;5.30;;
43996;SDS011;34318;45.818;15.964;2022-07-22T06:28:28;6.70;;;5.05;;
43996;SDS011;34318;45.818;15.964;2022-07-22T06:30:55;5.88;;;5.10;;
43996;SDS011;34318;45.818;15.964;2022-07-22T06:33:22;8.20;;;4.63;;
43996;SDS011;34318;45.818;15.964;2022-07-22T06:35:49;6.68;;;5.05;;
43996;SDS011;34318;45.818;15.964;2022-07-22T06:38:16;6.88;;;4.55;;
43996;SDS011;34318;45.818;15.964;2022-07-22T06:40:58;9.27;;;5.20;;
43996;SDS011;34318;45.818;15.964;2022-07-22T06:43:27;8.93;;;5.18;;
43996;SDS011;34318;45.818;15.964;2022-07-22T06:45:55;7.63;;;5.07;;
43996;SDS011;34318;45.818;15.964;2022-07-22T06:48:23;6.03;;;4.70;;
43996;SDS011;34318;45.818;15.964;2022-07-22T06:50:50;11.55;;;5.03;;
43996;SDS011;34318;45.818;15.964;2022-07-22T06:53:19;7.82;;;5.10;;
43996;SDS011;34318;45.818;15.964;2022-07-22T06:55:46;6.72;;;5.03;;
43996;SDS011;34318;45.818;15.964;2022-07-22T06:58:13;7.47;;;5.88;;
43996;SDS011;34318;45.818;15.964;2022-07-22T07:00:40;8.55;;;5.32;;
43996;SDS011;34318;45.818;15.964;2022-07-22T07:03:07;7.18;;;5.38;;
43996;SDS011;34318;45.818;15.964;2022-07-22T07:05:54;7.00;;;5.07;;
43996;SDS011;34318;45.818;15.964;2022-07-22T07:08:21;8.57;;;4.72;;
43996;SDS011;34318;45.818;15.964;2022-07-22T07:10:48;11.05;;;5.55;;
43996;SDS011;34318;45.818;15.964;2022-07-22T07:13:15;6.00;;;5.15;;
43996;SDS011;34318;45.818;15.964;2022-07-22T07:15:42;5.80;;;5.07;;
43996;SDS011;34318;45.818;15.964;2022-07-22T07:18:08;7.95;;;6.35;;
43996;SDS011;34318;45.818;15.964;2022-07-22T07:20:35;7.55;;;5.50;;
43996;SDS011;34318;45.818;15.964;2022-07-22T07:23:03;9.32;;;5.88;;
43996;SDS011;34318;45.818;15.964;2022-07-22T07:25:31;5.80;;;4.97;;
43996;SDS011;34318;45.818;15.964;2022-07-22T07:27:58;8.30;;;5.32;;
43996;SDS011;34318;45.818;15.964;2022-07-22T07:30:25;8.93;;;5.07;;
43996;SDS011;34318;45.818;15.964;2022-07-22T07:32:52;5.63;;;5.13;;
43996;SDS011;34318;45.818;15.964;2022-07-22T07:35:20;10.82;;;5.63;;
43996;SDS011;34318;45.818;15.964;2022-07-22T07:37:51;6.15;;;5.53;;
43996;SDS011;34318;45.818;15.964;2022-07-22T07:40:19;5.43;;;4.88;;
43996;SDS011;34318;45.818;15.964;2022-07-22T07:42:49;8.95;;;5.78;;
43996;SDS011;34318;45.818;15.964;2022-07-22T07:45:28;6.18;;;5.57;;
43996;SDS011;34318;45.818;15.964;2022-07-22T07:47:54;6.13;;;5.53;;
43996;SDS011;34318;45.818;15.964;2022-07-22T07:50:22;6.00;;;5.20;;
43996;SDS011;34318;45.818;15.964;2022-07-22T07:52:49;8.80;;;5.30;;
43996;SDS011;34318;45.818;15.964;2022-07-22T07:55:18;5.45;;;4.95;;
43996;SDS011;34318;45.818;15.964;2022-07-22T07:57:46;6.80;;;4.82;;
43996;SDS011;34318;45.818;15.964;2022-07-22T08:00:18;5.65;;;5.15;;
43996;SDS011;34318;45.818;15.964;2022-07-22T08:02:47;6.80;;;5.13;;
43996;SDS011;34318;45.818;15.964;2022-07-22T08:05:15;8.02;;;5.55;;
43996;SDS011;34318;45.818;15.964;2022-07-22T08:07:43;6.95;;;4.88;;
43996;SDS011;34318;45.818;15.964;2022-07-22T08:10:10;8.25;;;5.57;;
43996;SDS011;34318;45.818;15.964;2022-07-22T08:12:57;6.05;;;5.00;;
43996;SDS011;34318;45.818;15.964;2022-07-22T08:15:25;6.93;;;5.05;;
43996;SDS011;34318;45.818;15.964;2022-07-22T08:17:53;6.15;;;5.55;;
43996;SDS011;34318;45.818;15.964;2022-07-22T08:20:20;8.40;;;5.53;;
43996;SDS011;34318;45.818;15.964;2022-07-22T08:22:48;11.00;;;5.32;;
43996;SDS011;34318;45.818;15.964;2022-07-22T08:25:16;6.65;;;5.35;;
43996;SDS011;34318;45.818;15.964;2022-07-22T08:27:43;7.60;;;4.88;;
43996;SDS011;34318;45.818;15.964;2022-07-22T08:30:11;5.82;;;5.22;;
43996;SDS011;34318;45.818;15.964;2022-07-22T08:32:38;6.05;;;4.85;;
43996;SDS011;34318;45.818;15.964;2022-07-22T08:35:05;9.10;;;5.78;;
43996;SDS011;34318;45.818;15.964;2022-07-22T08:37:33;8.95;;;5.88;;
43996;SDS011;34318;45.818;15.964;2022-07-22T08:40:00;9.23;;;5.90;;
43996;SDS011;34318;45.818;15.964;2022-07-22T08:42:28;8.88;;;5.40;;
43996;SDS011;34318;45.818;15.964;2022-07-22T08:44:54;8.57;;;6.28;;
43996;SDS011;34318;45.818;15.964;2022-07-22T08:50:09;13.02;;;6.90;;
43996;SDS011;34318;45.818;15.964;2022-07-22T08:52:36;14.20;;;7.35;;
43996;SDS011;34318;45.818;15.964;2022-07-22T08:55:06;10.95;;;7.45;;
43996;SDS011;34318;45.818;15.964;2022-07-22T08:57:33;12.93;;;7.97;;
43996;SDS011;34318;45.818;15.964;2022-07-22T09:00:08;16.23;;;8.20;;
43996;SDS011;34318;45.818;15.964;2022-07-22T09:02:38;10.27;;;6.82;;
43996;SDS011;34318;45.818;15.964;2022-07-22T09:05:08;10.30;;;6.85;;
43996;SDS011;34318;45.818;15.964;2022-07-22T09:07:57;10.75;;;7.43;;
43996;SDS011;34318;45.818;15.964;2022-07-22T09:10:30;16.42;;;8.27;;
43996;SDS011;34318;45.818;15.964;2022-07-22T09:13:00;9.90;;;6.00;;
43996;SDS011;34318;45.818;15.964;2022-07-22T09:15:30;11.60;;;6.95;;
43996;SDS011;34318;45.818;15.964;2022-07-22T09:17:59;8.88;;;6.65;;
43996;SDS011;34318;45.818;15.964;2022-07-22T09:20:31;9.98;;;7.07;;
43996;SDS011;34318;45.818;15.964;2022-07-22T09:22:59;9.05;;;5.93;;
43996;SDS011;34318;45.818;15.964;2022-07-22T09:25:27;10.02;;;6.78;;
43996;SDS011;34318;45.818;15.964;2022-07-22T09:30:37;10.85;;;6.75;;
43996;SDS011;34318;45.818;15.964;2022-07-22T09:33:20;11.02;;;6.55;;
43996;SDS011;34318;45.818;15.964;2022-07-22T09:35:48;9.75;;;6.20;;
43996;SDS011;34318;45.818;15.964;2022-07-22T09:38:17;7.88;;;6.47;;
43996;SDS011;34318;45.818;15.964;2022-07-22T09:40:52;10.27;;;6.53;;
43996;SDS011;34318;45.818;15.964;2022-07-22T09:43:20;9.82;;;6.43;;
43996;SDS011;34318;45.818;15.964;2022-07-22T09:45:48;10.25;;;6.60;;
43996;SDS011;34318;45.818;15.964;2022-07-22T09:48:16;11.15;;;6.70;;
43996;SDS011;34318;45.818;15.964;2022-07-22T09:50:45;9.02;;;6.45;;
43996;SDS011;34318;45.818;15.964;2022-07-22T09:53:13;10.98;;;5.95;;
43996;SDS011;34318;45.818;15.964;2022-07-22T09:55:41;9.75;;;6.45;;
43996;SDS011;34318;45.818;15.964;2022-07-22T09:58:08;10.10;;;6.47;;
43996;SDS011;34318;45.818;15.964;2022-07-22T10:00:35;11.65;;;6.32;;
43996;SDS011;34318;45.818;15.964;2022-07-22T10:03:04;11.68;;;6.55;;
43996;SDS011;34318;45.818;15.964;2022-07-22T10:05:41;10.65;;;6.70;;
43996;SDS011;34318;45.818;15.964;2022-07-22T10:08:09;10.05;;;6.70;;
43996;SDS011;34318;45.818;15.964;2022-07-22T10:10:37;15.73;;;6.63;;
43996;SDS011;34318;45.818;15.964;2022-07-22T10:13:05;16.35;;;7.10;;
43996;SDS011;34318;45.818;15.964;2022-07-22T10:15:33;14.68;;;7.00;;
43996;SDS011;34318;45.818;15.964;2022-07-22T10:18:09;14.00;;;7.03;;
43996;SDS011;34318;45.818;15.964;2022-07-22T10:20:41;16.00;;;7.68;;
43996;SDS011;34318;45.818;15.964;2022-07-22T10:23:08;12.25;;;7.82;;
43996;SDS011;34318;45.818;15.964;2022-07-22T10:25:59;12.18;;;7.00;;
43996;SDS011;34318;45.818;15.964;2022-07-22T10:33:45;12.02;;;6.97;;
43996;SDS011;34318;45.818;15.964;2022-07-22T10:36:21;11.73;;;6.82;;
43996;SDS011;34318;45.818;15.964;2022-07-22T10:39:09;10.43;;;6.05;;
43996;SDS011;34318;45.818;15.964;2022-07-22T10:41:39;12.40;;;6.65;;
43996;SDS011;34318;45.818;15.964;2022-07-22T10:44:46;14.77;;;6.25;;
43996;SDS011;34318;45.818;15.964;2022-07-22T10:56:06;11.13;;;5.60;;
43996;SDS011;34318;45.818;15.964;2022-07-22T10:58:40;10.70;;;5.47;;
43996;SDS011;34318;45.818;15.964;2022-07-22T11:01:09;9.15;;;5.90;;
43996;SDS011;34318;45.818;15.964;2022-07-22T11:03:40;7.32;;;5.50;;
43996;SDS011;34318;45.818;15.964;2022-07-22T11:06:22;7.15;;;5.75;;
43996;SDS011;34318;45.818;15.964;2022-07-22T11:08:54;8.45;;;5.70;;
43996;SDS011;34318;45.818;15.964;2022-07-22T11:14:31;10.48;;;5.35;;
43996;SDS011;34318;45.818;15.964;2022-07-22T11:17:07;8.90;;;5.75;;
43996;SDS011;34318;45.818;15.964;2022-07-22T11:19:37;7.85;;;5.13;;
43996;SDS011;34318;45.818;15.964;2022-07-22T11:24:32;8.48;;;5.60;;
43996;SDS011;34318;45.818;15.964;2022-07-22T11:27:00;7.93;;;5.57;;
43996;SDS011;34318;45.818;15.964;2022-07-22T11:32:00;7.30;;;5.15;;
43996;SDS011;34318;45.818;15.964;2022-07-22T11:34:29;9.77;;;5.35;;
43996;SDS011;34318;45.818;15.964;2022-07-22T11:36:56;9.27;;;5.43;;
43996;SDS011;34318;45.818;15.964;2022-07-22T11:39:25;10.23;;;5.10;;
43996;SDS011;34318;45.818;15.964;2022-07-22T11:41:55;9.20;;;5.90;;
43996;SDS011;34318;45.818;15.964;2022-07-22T11:44:25;9.98;;;6.18;;
43996;SDS011;34318;45.818;15.964;2022-07-22T11:46:53;8.60;;;5.85;;
43996;SDS011;34318;45.818;15.964;2022-07-22T11:49:24;6.60;;;4.90;;
43996;SDS011;34318;45.818;15.964;2022-07-22T11:51:53;8.38;;;5.47;;
43996;SDS011;34318;45.818;15.964;2022-07-22T11:54:21;8.35;;;5.53;;
43996;SDS011;34318;45.818;15.964;2022-07-22T11:56:48;6.95;;;5.47;;
43996;SDS011;34318;45.818;15.964;2022-07-22T11:59:22;13.15;;;5.07;;
43996;SDS011;34318;45.818;15.964;2022-07-22T12:01:49;10.93;;;5.38;;
43996;SDS011;34318;45.818;15.964;2022-07-22T12:04:18;8.10;;;5.35;;
43996;SDS011;34318;45.818;15.964;2022-07-22T12:06:47;10.48;;;5.47;;
43996;SDS011;34318;45.818;15.964;2022-07-22T12:09:20;7.35;;;4.82;;
43996;SDS011;34318;45.818;15.964;2022-07-22T12:11:49;8.07;;;5.30;;
43996;SDS011;34318;45.818;15.964;2022-07-22T12:14:18;8.95;;;5.63;;
43996;SDS011;34318;45.818;15.964;2022-07-22T12:16:59;10.63;;;5.45;;
43996;SDS011;34318;45.818;15.964;2022-07-22T12:19:29;14.65;;;6.00;;
43996;SDS011;34318;45.818;15.964;2022-07-22T12:21:58;9.00;;;5.43;;
43996;SDS011;34318;45.818;15.964;2022-07-22T12:24:31;7.95;;;5.55;;
43996;SDS011;34318;45.818;15.964;2022-07-22T12:27:04;14.05;;;5.70;;
43996;SDS011;34318;45.818;15.964;2022-07-22T12:32:03;13.73;;;5.30;;
43996;SDS011;34318;45.818;15.964;2022-07-22T12:40:09;9.63;;;5.38;;
43996;SDS011;34318;45.818;15.964;2022-07-22T12:42:42;19.08;;;5.95;;
43996;SDS011;34318;45.818;15.964;2022-07-22T12:45:17;10.85;;;5.80;;
43996;SDS011;34318;45.818;15.964;2022-07-22T12:47:51;7.45;;;5.30;;
43996;SDS011;34318;45.818;15.964;2022-07-22T12:53:07;8.95;;;5.15;;
43996;SDS011;34318;45.818;15.964;2022-07-22T12:55:42;5.28;;;4.78;;
43996;SDS011;34318;45.818;15.964;2022-07-22T12:58:24;6.82;;;4.82;;
43996;SDS011;34318;45.818;15.964;2022-07-22T13:00:53;8.23;;;5.07;;
43996;SDS011;34318;45.818;15.964;2022-07-22T13:03:22;9.63;;;4.85;;
43996;SDS011;34318;45.818;15.964;2022-07-22T13:05:53;11.20;;;5.43;;
43996;SDS011;34318;45.818;15.964;2022-07-22T13:08:22;7.78;;;5.10;;
43996;SDS011;34318;45.818;15.964;2022-07-22T13:10:50;7.07;;;5.30;;
43996;SDS011;34318;45.818;15.964;2022-07-22T13:13:18;8.60;;;5.53;;
43996;SDS011;34318;45.818;15.964;2022-07-22T13:15:46;6.28;;;4.47;;
43996;SDS011;34318;45.818;15.964;2022-07-22T13:18:14;9.10;;;5.18;;
43996;SDS011;34318;45.818;15.964;2022-07-22T13:20:41;8.20;;;4.70;;
43996;SDS011;34318;45.818;15.964;2022-07-22T13:23:08;7.60;;;5.15;;
43996;SDS011;34318;45.818;15.964;2022-07-22T13:25:35;6.75;;;5.25;;
43996;SDS011;34318;45.818;15.964;2022-07-22T13:28:02;8.80;;;4.65;;
43996;SDS011;34318;45.818;15.964;2022-07-22T13:30:30;9.45;;;5.03;;
43996;SDS011;34318;45.818;15.964;2022-07-22T13:32:57;10.52;;;5.25;;
43996;SDS011;34318;45.818;15.964;2022-07-22T13:35:25;6.65;;;5.07;;
43996;SDS011;34318;45.818;15.964;2022-07-22T13:37:52;6.30;;;4.82;;
43996;SDS011;34318;45.818;15.964;2022-07-22T13:40:19;8.45;;;5.20;;
43996;SDS011;34318;45.818;15.964;2022-07-22T13:42:46;9.43;;;5.40;;
43996;SDS011;34318;45.818;15.964;2022-07-22T13:45:12;7.03;;;4.75;;
43996;SDS011;34318;45.818;15.964;2022-07-22T13:47:40;6.00;;;3.97;;
43996;SDS011;34318;45.818;15.964;2022-07-22T13:50:08;11.10;;;5.38;;
43996;SDS011;34318;45.818;15.964;2022-07-22T13:52:35;10.90;;;5.30;;
43996;SDS011;34318;45.818;15.964;2022-07-22T13:55:03;7.85;;;5.05;;
43996;SDS011;34318;45.818;15.964;2022-07-22T13:57:33;9.60;;;4.43;;
43996;SDS011;34318;45.818;15.964;2022-07-22T14:00:00;8.13;;;4.60;;
43996;SDS011;34318;45.818;15.964;2022-07-22T14:02:37;6.97;;;4.88;;
43996;SDS011;34318;45.818;15.964;2022-07-22T14:05:05;9.20;;;4.78;;
43996;SDS011;34318;45.818;15.964;2022-07-22T14:07:32;7.43;;;4.88;;
43996;SDS011;34318;45.818;15.964;2022-07-22T14:09:59;6.70;;;4.57;;
43996;SDS011;34318;45.818;15.964;2022-07-22T14:12:26;6.70;;;4.95;;
43996;SDS011;34318;45.818;15.964;2022-07-22T14:14:53;10.20;;;4.95;;
43996;SDS011;34318;45.818;15.964;2022-07-22T14:17:20;6.05;;;4.60;;
43996;SDS011;34318;45.818;15.964;2022-07-22T14:19:51;6.82;;;4.20;;
43996;SDS011;34318;45.818;15.964;2022-07-22T14:22:25;6.03;;;4.53;;
43996;SDS011;34318;45.818;15.964;2022-07-22T14:24:53;8.27;;;4.85;;
43996;SDS011;34318;45.818;15.964;2022-07-22T14:27:20;7.03;;;4.65;;
43996;SDS011;34318;45.818;15.964;2022-07-22T14:29:50;5.63;;;4.07;;
43996;SDS011;34318;45.818;15.964;2022-07-22T14:32:17;7.75;;;4.78;;
43996;SDS011;34318;45.818;15.964;2022-07-22T14:34:43;7.20;;;4.47;;
43996;SDS011;34318;45.818;15.964;2022-07-22T14:37:10;6.57;;;4.93;;
43996;SDS011;34318;45.818;15.964;2022-07-22T14:39:37;9.48;;;5.13;;
43996;SDS011;34318;45.818;15.964;2022-07-22T14:42:04;8.45;;;5.05;;
43996;SDS011;34318;45.818;15.964;2022-07-22T14:44:31;7.32;;;5.10;;
43996;SDS011;34318;45.818;15.964;2022-07-22T14:46:58;11.70;;;5.18;;
43996;SDS011;34318;45.818;15.964;2022-07-22T14:49:25;7.13;;;5.15;;
43996;SDS011;34318;45.818;15.964;2022-07-22T14:51:52;8.32;;;5.30;;
43996;SDS011;34318;45.818;15.964;2022-07-22T14:54:19;7.50;;;4.28;;
43996;SDS011;34318;45.818;15.964;2022-07-22T14:56:46;7.57;;;5.03;;
43996;SDS011;34318;45.818;15.964;2022-07-22T14:59:15;8.40;;;4.75;;
43996;SDS011;34318;45.818;15.964;2022-07-22T15:01:43;10.38;;;4.38;;
43996;SDS011;34318;45.818;15.964;2022-07-22T15:04:10;6.25;;;4.53;;
43996;SDS011;34318;45.818;15.964;2022-07-22T15:06:37;6.13;;;4.68;;
43996;SDS011;34318;45.818;15.964;2022-07-22T15:09:03;9.50;;;4.72;;
43996;SDS011;34318;45.818;15.964;2022-07-22T15:11:30;8.63;;;4.78;;
43996;SDS011;34318;45.818;15.964;2022-07-22T15:13:57;5.10;;;4.28;;
43996;SDS011;34318;45.818;15.964;2022-07-22T15:16:24;6.97;;;4.47;;
43996;SDS011;34318;45.818;15.964;2022-07-22T15:18:52;5.03;;;4.50;;
43996;SDS011;34318;45.818;15.964;2022-07-22T15:21:19;5.72;;;5.10;;
43996;SDS011;34318;45.818;15.964;2022-07-22T15:23:46;6.57;;;4.75;;